sensor_id;sensor_type;location;lat;lon;timestamp;temperature;humidity
45535;DHT22;35892;48.798;9.698;2022-08-21T00:01:52;16.60;99.90
45535;DHT22;35892;48.798;9.698;2022-08-21T00:04:19;16.50;99.90
45535;DHT22;35892;48.798;9.698;2022-08-21T00:06:51;16.50;99.90
45535;DHT22;35892;48.798;9.698;2022-08-21T00:09:20;16.40;99.90
45535;DHT22;35892;48.798;9.698;2022-08-21T00:11:49;16.50;99.90
45535;DHT22;35892;48.798;9.698;2022-08-21T00:14:18;16.40;99.90
45535;DHT22;35892;48.798;9.698;2022-08-21T00:16:47;16.40;99.90
45535;DHT22;35892;48.798;9.698;2022-08-21T00:19:19;16.30;99.90
45535;DHT22;35892;48.798;9.698;2022-08-21T00:21:47;16.20;99.90
45535;DHT22;35892;48.798;9.698;2022-08-21T00:24:18;16.20;99.90
45535;DHT22;35892;48.798;9.698;2022-08-21T00:26:46;16.20;99.90
45535;DHT22;35892;48.798;9.698;2022-08-21T00:29:14;16.20;99.90
45535;DHT22;35892;48.798;9.698;2022-08-21T00:31:42;16.10;99.90
45535;DHT22;35892;48.798;9.698;2022-08-21T00:34:10;16.10;99.90
45535;DHT22;35892;48.798;9.698;2022-08-21T00:36:38;16.10;99.90
45535;DHT22;35892;48.798;9.698;2022-08-21T00:39:06;16.00;99.90
45535;DHT22;35892;48.798;9.698;2022-08-21T00:41:35;16.00;99.90
45535;DHT22;35892;48.798;9.698;2022-08-21T00:44:07;16.00;99.90
45535;DHT22;35892;48.798;9.698;2022-08-21T00:46:37;15.90;99.90
45535;DHT22;35892;48.798;9.698;2022-08-21T00:49:07;15.90;99.90
45535;DHT22;35892;48.798;9.698;2022-08-21T00:51:47;15.90;99.90
45535;DHT22;35892;48.798;9.698;2022-08-21T00:54:17;15.90;99.90
45535;DHT22;35892;48.798;9.698;2022-08-21T00:56:56;15.90;99.90
45535;DHT22;35892;48.798;9.698;2022-08-21T00:59:28;15.90;99.90
45535;DHT22;35892;48.798;9.698;2022-08-21T01:01:58;15.80;99.90
45535;DHT22;35892;48.798;9.698;2022-08-21T01:04:24;15.80;99.90
45535;DHT22;35892;48.798;9.698;2022-08-21T01:06:52;15.80;99.90
45535;DHT22;35892;48.798;9.698;2022-08-21T01:09:19;15.80;99.90
45535;DHT22;35892;48.798;9.698;2022-08-21T01:11:46;15.70;99.90
45535;DHT22;35892;48.798;9.698;2022-08-21T01:14:15;15.70;99.90
45535;DHT22;35892;48.798;9.698;2022-08-21T01:16:50;15.70;99.90
45535;DHT22;35892;48.798;9.698;2022-08-21T01:19:20;15.70;99.90
45535;DHT22;35892;48.798;9.698;2022-08-21T01:21:47;15.70;99.90
45535;DHT22;35892;48.798;9.698;2022-08-21T01:24:14;15.60;99.90
45535;DHT22;35892;48.798;9.698;2022-08-21T01:26:42;15.60;99.90
45535;DHT22;35892;48.798;9.698;2022-08-21T01:31:36;15.50;99.90
45535;DHT22;35892;48.798;9.698;2022-08-21T01:34:06;15.40;99.90
45535;DHT22;35892;48.798;9.698;2022-08-21T01:36:33;15.30;99.90
45535;DHT22;35892;48.798;9.698;2022-08-21T01:39:06;15.30;99.90
45535;DHT22;35892;48.798;9.698;2022-08-21T01:41:35;15.30;99.90
45535;DHT22;35892;48.798;9.698;2022-08-21T01:44:03;15.30;99.90
45535;DHT22;35892;48.798;9.698;2022-08-21T01:46:30;15.20;99.90
45535;DHT22;35892;48.798;9.698;2022-08-21T01:48:56;15.30;99.90
45535;DHT22;35892;48.798;9.698;2022-08-21T01:51:23;15.20;99.90
45535;DHT22;35892;48.798;9.698;2022-08-21T01:53:50;15.30;99.90
45535;DHT22;35892;48.798;9.698;2022-08-21T01:56:19;15.30;99.90
45535;DHT22;35892;48.798;9.698;2022-08-21T01:58:48;15.30;99.90
45535;DHT22;35892;48.798;9.698;2022-08-21T02:01:18;15.30;99.90
45535;DHT22;35892;48.798;9.698;2022-08-21T02:03:47;15.20;99.90
45535;DHT22;35892;48.798;9.698;2022-08-21T02:06:15;15.20;99.90
45535;DHT22;35892;48.798;9.698;2022-08-21T02:08:45;15.20;99.90
45535;DHT22;35892;48.798;9.698;2022-08-21T02:11:17;15.10;99.90
45535;DHT22;35892;48.798;9.698;2022-08-21T02:13:43;15.10;99.90
45535;DHT22;35892;48.798;9.698;2022-08-21T02:16:12;15.10;99.90
45535;DHT22;35892;48.798;9.698;2022-08-21T02:18:44;15.10;99.90
45535;DHT22;35892;48.798;9.698;2022-08-21T02:21:14;15.10;99.90
45535;DHT22;35892;48.798;9.698;2022-08-21T02:23:43;15.10;99.90
45535;DHT22;35892;48.798;9.698;2022-08-21T02:26:15;15.10;99.90
45535;DHT22;35892;48.798;9.698;2022-08-21T02:28:44;15.00;99.90
45535;DHT22;35892;48.798;9.698;2022-08-21T02:31:13;15.10;99.90
45535;DHT22;35892;48.798;9.698;2022-08-21T02:33:44;15.00;99.90
45535;DHT22;35892;48.798;9.698;2022-08-21T02:36:11;15.00;99.90
45535;DHT22;35892;48.798;9.698;2022-08-21T02:38:40;14.90;99.90
45535;DHT22;35892;48.798;9.698;2022-08-21T02:41:16;14.90;99.90
45535;DHT22;35892;48.798;9.698;2022-08-21T02:43:44;14.80;99.90
45535;DHT22;35892;48.798;9.698;2022-08-21T02:46:13;14.70;99.90
45535;DHT22;35892;48.798;9.698;2022-08-21T02:48:42;14.70;99.90
45535;DHT22;35892;48.798;9.698;2022-08-21T02:51:14;14.70;99.90
45535;DHT22;35892;48.798;9.698;2022-08-21T02:53:41;14.70;99.90
45535;DHT22;35892;48.798;9.698;2022-08-21T02:56:14;14.70;99.90
45535;DHT22;35892;48.798;9.698;2022-08-21T02:58:49;14.60;99.90
45535;DHT22;35892;48.798;9.698;2022-08-21T03:01:20;14.60;99.90
45535;DHT22;35892;48.798;9.698;2022-08-21T03:03:48;14.60;99.90
45535;DHT22;35892;48.798;9.698;2022-08-21T03:06:19;14.60;99.90
45535;DHT22;35892;48.798;9.698;2022-08-21T03:08:47;14.60;99.90
45535;DHT22;35892;48.798;9.698;2022-08-21T03:11:16;14.60;99.90
45535;DHT22;35892;48.798;9.698;2022-08-21T03:13:43;14.60;99.90
45535;DHT22;35892;48.798;9.698;2022-08-21T03:16:10;14.50;99.90
45535;DHT22;35892;48.798;9.698;2022-08-21T03:18:39;14.50;99.90
45535;DHT22;35892;48.798;9.698;2022-08-21T03:21:06;14.50;99.90
45535;DHT22;35892;48.798;9.698;2022-08-21T03:23:33;14.50;99.90
45535;DHT22;35892;48.798;9.698;2022-08-21T03:26:00;14.50;99.90
45535;DHT22;35892;48.798;9.698;2022-08-21T03:28:30;14.50;99.90
45535;DHT22;35892;48.798;9.698;2022-08-21T03:30:59;14.40;99.90
45535;DHT22;35892;48.798;9.698;2022-08-21T03:33:26;14.40;99.90
45535;DHT22;35892;48.798;9.698;2022-08-21T03:36:00;14.40;99.90
45535;DHT22;35892;48.798;9.698;2022-08-21T03:38:29;14.40;99.90
45535;DHT22;35892;48.798;9.698;2022-08-21T03:40:57;14.30;99.90
45535;DHT22;35892;48.798;9.698;2022-08-21T03:43:26;14.30;99.90
45535;DHT22;35892;48.798;9.698;2022-08-21T03:45:56;14.20;99.90
45535;DHT22;35892;48.798;9.698;2022-08-21T03:48:23;14.20;99.90
45535;DHT22;35892;48.798;9.698;2022-08-21T03:50:52;14.20;99.90
45535;DHT22;35892;48.798;9.698;2022-08-21T03:53:19;14.10;99.90
45535;DHT22;35892;48.798;9.698;2022-08-21T03:55:50;14.10;99.90
45535;DHT22;35892;48.798;9.698;2022-08-21T03:58:21;14.10;99.90
45535;DHT22;35892;48.798;9.698;2022-08-21T04:00:51;14.10;99.90
45535;DHT22;35892;48.798;9.698;2022-08-21T04:03:19;14.10;99.90
45535;DHT22;35892;48.798;9.698;2022-08-21T04:05:46;14.10;99.90
45535;DHT22;35892;48.798;9.698;2022-08-21T04:08:16;14.00;99.90
45535;DHT22;35892;48.798;9.698;2022-08-21T04:10:47;13.90;99.90
45535;DHT22;35892;48.798;9.698;2022-08-21T04:13:14;13.90;99.90
45535;DHT22;35892;48.798;9.698;2022-08-21T04:15:44;13.90;99.90
45535;DHT22;35892;48.798;9.698;2022-08-21T04:18:11;13.80;99.90
45535;DHT22;35892;48.798;9.698;2022-08-21T04:20:42;13.90;99.90
45535;DHT22;35892;48.798;9.698;2022-08-21T04:23:16;13.80;99.90
45535;DHT22;35892;48.798;9.698;2022-08-21T04:25:50;13.80;99.90
45535;DHT22;35892;48.798;9.698;2022-08-21T04:28:17;13.80;99.90
45535;DHT22;35892;48.798;9.698;2022-08-21T04:30:45;13.80;99.90
45535;DHT22;35892;48.798;9.698;2022-08-21T04:33:14;13.80;99.90
45535;DHT22;35892;48.798;9.698;2022-08-21T04:35:41;13.70;99.90
45535;DHT22;35892;48.798;9.698;2022-08-21T04:38:08;13.70;99.90
45535;DHT22;35892;48.798;9.698;2022-08-21T04:40:35;13.70;99.90
45535;DHT22;35892;48.798;9.698;2022-08-21T04:43:05;13.70;99.90
45535;DHT22;35892;48.798;9.698;2022-08-21T04:45:45;13.80;99.90
45535;DHT22;35892;48.798;9.698;2022-08-21T04:48:18;13.80;99.90
45535;DHT22;35892;48.798;9.698;2022-08-21T04:53:22;13.90;99.90
45535;DHT22;35892;48.798;9.698;2022-08-21T04:55:52;13.90;99.90
45535;DHT22;35892;48.798;9.698;2022-08-21T04:58:22;13.90;99.90
45535;DHT22;35892;48.798;9.698;2022-08-21T05:00:56;13.90;99.90
45535;DHT22;35892;48.798;9.698;2022-08-21T05:03:23;14.00;99.90
45535;DHT22;35892;48.798;9.698;2022-08-21T05:05:54;14.10;99.90
45535;DHT22;35892;48.798;9.698;2022-08-21T05:08:23;14.10;99.90
45535;DHT22;35892;48.798;9.698;2022-08-21T05:10:54;14.20;99.90
45535;DHT22;35892;48.798;9.698;2022-08-21T05:13:28;14.20;99.90
45535;DHT22;35892;48.798;9.698;2022-08-21T05:15:55;14.30;99.90
45535;DHT22;35892;48.798;9.698;2022-08-21T05:18:22;14.30;99.90
45535;DHT22;35892;48.798;9.698;2022-08-21T05:20:50;14.30;99.90
45535;DHT22;35892;48.798;9.698;2022-08-21T05:23:17;14.30;99.90
45535;DHT22;35892;48.798;9.698;2022-08-21T05:25:48;14.30;99.90
45535;DHT22;35892;48.798;9.698;2022-08-21T05:28:15;14.30;99.90
45535;DHT22;35892;48.798;9.698;2022-08-21T05:30:45;14.40;99.90
45535;DHT22;35892;48.798;9.698;2022-08-21T05:33:12;14.40;99.90
45535;DHT22;35892;48.798;9.698;2022-08-21T05:35:38;14.40;99.90
45535;DHT22;35892;48.798;9.698;2022-08-21T05:38:05;14.40;99.90
45535;DHT22;35892;48.798;9.698;2022-08-21T05:40:43;14.40;99.90
45535;DHT22;35892;48.798;9.698;2022-08-21T05:43:12;14.60;99.90
45535;DHT22;35892;48.798;9.698;2022-08-21T05:45:41;14.60;99.90
45535;DHT22;35892;48.798;9.698;2022-08-21T05:48:11;14.70;99.90
45535;DHT22;35892;48.798;9.698;2022-08-21T05:50:38;14.80;99.90
45535;DHT22;35892;48.798;9.698;2022-08-21T05:53:06;14.90;99.90
45535;DHT22;35892;48.798;9.698;2022-08-21T05:55:35;14.90;99.90
45535;DHT22;35892;48.798;9.698;2022-08-21T05:58:11;14.90;99.90
45535;DHT22;35892;48.798;9.698;2022-08-21T06:00:38;15.00;99.90
45535;DHT22;35892;48.798;9.698;2022-08-21T06:03:11;15.10;99.90
45535;DHT22;35892;48.798;9.698;2022-08-21T06:05:38;15.10;99.90
45535;DHT22;35892;48.798;9.698;2022-08-21T06:08:05;15.10;99.90
45535;DHT22;35892;48.798;9.698;2022-08-21T06:10:32;15.00;99.90
45535;DHT22;35892;48.798;9.698;2022-08-21T06:13:01;15.00;99.90
45535;DHT22;35892;48.798;9.698;2022-08-21T06:15:28;15.10;99.90
45535;DHT22;35892;48.798;9.698;2022-08-21T06:17:57;15.10;99.90
45535;DHT22;35892;48.798;9.698;2022-08-21T06:20:24;15.20;99.90
45535;DHT22;35892;48.798;9.698;2022-08-21T06:22:51;15.20;99.90
45535;DHT22;35892;48.798;9.698;2022-08-21T06:25:18;15.30;99.90
45535;DHT22;35892;48.798;9.698;2022-08-21T06:27:46;15.40;99.90
45535;DHT22;35892;48.798;9.698;2022-08-21T06:30:16;15.50;99.90
45535;DHT22;35892;48.798;9.698;2022-08-21T06:32:42;15.60;99.90
45535;DHT22;35892;48.798;9.698;2022-08-21T06:35:09;15.70;99.90
45535;DHT22;35892;48.798;9.698;2022-08-21T06:37:37;15.80;99.90
45535;DHT22;35892;48.798;9.698;2022-08-21T06:40:04;15.80;99.90
45535;DHT22;35892;48.798;9.698;2022-08-21T06:42:38;15.90;99.90
45535;DHT22;35892;48.798;9.698;2022-08-21T06:45:09;16.00;99.90
45535;DHT22;35892;48.798;9.698;2022-08-21T06:47:36;16.10;99.90
45535;DHT22;35892;48.798;9.698;2022-08-21T06:50:06;16.10;99.90
45535;DHT22;35892;48.798;9.698;2022-08-21T06:52:36;16.30;99.90
45535;DHT22;35892;48.798;9.698;2022-08-21T06:55:08;16.30;99.90
45535;DHT22;35892;48.798;9.698;2022-08-21T06:57:35;16.40;99.90
45535;DHT22;35892;48.798;9.698;2022-08-21T07:00:06;16.50;99.90
45535;DHT22;35892;48.798;9.698;2022-08-21T07:02:36;16.60;99.90
45535;DHT22;35892;48.798;9.698;2022-08-21T07:05:07;16.70;99.90
45535;DHT22;35892;48.798;9.698;2022-08-21T07:07:44;16.80;99.90
45535;DHT22;35892;48.798;9.698;2022-08-21T07:10:12;16.90;99.90
45535;DHT22;35892;48.798;9.698;2022-08-21T07:12:53;17.00;99.90
45535;DHT22;35892;48.798;9.698;2022-08-21T07:15:28;17.10;99.90
45535;DHT22;35892;48.798;9.698;2022-08-21T07:17:58;17.20;99.90
45535;DHT22;35892;48.798;9.698;2022-08-21T07:20:27;17.30;99.90
45535;DHT22;35892;48.798;9.698;2022-08-21T07:22:55;17.30;99.90
45535;DHT22;35892;48.798;9.698;2022-08-21T07:25:26;17.30;99.90
45535;DHT22;35892;48.798;9.698;2022-08-21T07:27:53;17.40;99.90
45535;DHT22;35892;48.798;9.698;2022-08-21T07:30:20;17.50;99.90
45535;DHT22;35892;48.798;9.698;2022-08-21T07:32:47;17.60;99.90
45535;DHT22;35892;48.798;9.698;2022-08-21T07:35:18;17.70;99.90
45535;DHT22;35892;48.798;9.698;2022-08-21T07:37:45;17.80;99.90
45535;DHT22;35892;48.798;9.698;2022-08-21T07:40:13;17.80;99.90
45535;DHT22;35892;48.798;9.698;2022-08-21T07:42:46;17.80;99.90
45535;DHT22;35892;48.798;9.698;2022-08-21T07:45:14;17.80;99.90
45535;DHT22;35892;48.798;9.698;2022-08-21T07:47:41;17.90;99.90
45535;DHT22;35892;48.798;9.698;2022-08-21T07:50:10;18.00;99.90
45535;DHT22;35892;48.798;9.698;2022-08-21T07:52:38;18.10;99.90
45535;DHT22;35892;48.798;9.698;2022-08-21T07:55:06;18.10;99.90
45535;DHT22;35892;48.798;9.698;2022-08-21T07:57:34;18.20;99.90
45535;DHT22;35892;48.798;9.698;2022-08-21T08:00:01;18.40;99.90
45535;DHT22;35892;48.798;9.698;2022-08-21T08:02:29;18.50;99.90
45535;DHT22;35892;48.798;9.698;2022-08-21T08:05:07;18.60;99.90
45535;DHT22;35892;48.798;9.698;2022-08-21T08:07:34;18.70;99.90
45535;DHT22;35892;48.798;9.698;2022-08-21T08:10:03;18.70;99.90
45535;DHT22;35892;48.798;9.698;2022-08-21T08:12:30;18.80;99.90
45535;DHT22;35892;48.798;9.698;2022-08-21T08:15:00;18.90;99.90
45535;DHT22;35892;48.798;9.698;2022-08-21T08:17:27;19.00;99.90
45535;DHT22;35892;48.798;9.698;2022-08-21T08:19:55;19.00;99.90
45535;DHT22;35892;48.798;9.698;2022-08-21T08:22:22;19.00;99.90
45535;DHT22;35892;48.798;9.698;2022-08-21T08:24:51;19.20;99.90
45535;DHT22;35892;48.798;9.698;2022-08-21T08:27:19;19.20;99.90
45535;DHT22;35892;48.798;9.698;2022-08-21T08:29:47;19.30;99.90
45535;DHT22;35892;48.798;9.698;2022-08-21T08:32:16;19.40;99.90
45535;DHT22;35892;48.798;9.698;2022-08-21T08:34:45;19.40;99.90
45535;DHT22;35892;48.798;9.698;2022-08-21T08:37:13;19.40;99.90
45535;DHT22;35892;48.798;9.698;2022-08-21T08:39:42;19.50;99.90
45535;DHT22;35892;48.798;9.698;2022-08-21T08:42:14;19.50;99.90
45535;DHT22;35892;48.798;9.698;2022-08-21T08:47:31;19.70;99.90
45535;DHT22;35892;48.798;9.698;2022-08-21T08:53:07;19.90;99.90
45535;DHT22;35892;48.798;9.698;2022-08-21T08:55:37;20.00;99.90
45535;DHT22;35892;48.798;9.698;2022-08-21T08:58:12;20.00;99.90
45535;DHT22;35892;48.798;9.698;2022-08-21T09:00:46;20.10;99.90
45535;DHT22;35892;48.798;9.698;2022-08-21T09:03:15;20.10;99.90
45535;DHT22;35892;48.798;9.698;2022-08-21T09:05:48;20.10;99.90
45535;DHT22;35892;48.798;9.698;2022-08-21T09:13:24;20.30;99.90
45535;DHT22;35892;48.798;9.698;2022-08-21T09:19:03;20.30;99.90
45535;DHT22;35892;48.798;9.698;2022-08-21T09:22:41;20.40;99.90
45535;DHT22;35892;48.798;9.698;2022-08-21T09:24:59;20.50;99.90
45535;DHT22;35892;48.798;9.698;2022-08-21T09:27:28;20.60;99.90
45535;DHT22;35892;48.798;9.698;2022-08-21T09:29:59;20.70;99.90
45535;DHT22;35892;48.798;9.698;2022-08-21T09:32:30;20.70;99.90
45535;DHT22;35892;48.798;9.698;2022-08-21T09:37:47;20.80;99.90
45535;DHT22;35892;48.798;9.698;2022-08-21T09:40:28;21.00;99.90
45535;DHT22;35892;48.798;9.698;2022-08-21T09:43:10;21.00;99.90
45535;DHT22;35892;48.798;9.698;2022-08-21T09:45:44;21.10;99.90
45535;DHT22;35892;48.798;9.698;2022-08-21T09:48:23;21.10;99.90
45535;DHT22;35892;48.798;9.698;2022-08-21T09:50:53;21.20;99.90
45535;DHT22;35892;48.798;9.698;2022-08-21T09:53:26;21.20;99.90
45535;DHT22;35892;48.798;9.698;2022-08-21T09:56:03;21.30;99.60
45535;DHT22;35892;48.798;9.698;2022-08-21T09:58:53;21.40;98.90
45535;DHT22;35892;48.798;9.698;2022-08-21T10:01:23;21.60;98.70
45535;DHT22;35892;48.798;9.698;2022-08-21T10:04:11;21.60;98.40
45535;DHT22;35892;48.798;9.698;2022-08-21T10:06:39;21.60;97.40
45535;DHT22;35892;48.798;9.698;2022-08-21T10:09:13;21.60;96.80
45535;DHT22;35892;48.798;9.698;2022-08-21T10:17:51;21.90;92.70
45535;DHT22;35892;48.798;9.698;2022-08-21T10:20:25;22.10;91.80
45535;DHT22;35892;48.798;9.698;2022-08-21T10:25:52;22.10;86.40
45535;DHT22;35892;48.798;9.698;2022-08-21T10:31:58;22.20;84.50
45535;DHT22;35892;48.798;9.698;2022-08-21T10:40:30;22.60;80.80
45535;DHT22;35892;48.798;9.698;2022-08-21T10:43:35;22.80;79.60
45535;DHT22;35892;48.798;9.698;2022-08-21T10:46:25;23.00;80.40
45535;DHT22;35892;48.798;9.698;2022-08-21T10:51:51;23.20;79.60
45535;DHT22;35892;48.798;9.698;2022-08-21T10:54:56;23.20;78.10
45535;DHT22;35892;48.798;9.698;2022-08-21T10:57:33;23.20;78.80
45535;DHT22;35892;48.798;9.698;2022-08-21T11:00:10;23.20;79.10
45535;DHT22;35892;48.798;9.698;2022-08-21T11:06:11;23.30;79.10
45535;DHT22;35892;48.798;9.698;2022-08-21T11:08:42;23.40;79.20
45535;DHT22;35892;48.798;9.698;2022-08-21T11:11:19;23.60;78.90
45535;DHT22;35892;48.798;9.698;2022-08-21T11:13:54;23.70;76.90
45535;DHT22;35892;48.798;9.698;2022-08-21T11:19:17;23.60;74.40
45535;DHT22;35892;48.798;9.698;2022-08-21T11:24:52;23.50;74.00
45535;DHT22;35892;48.798;9.698;2022-08-21T11:30:00;23.70;73.30
45535;DHT22;35892;48.798;9.698;2022-08-21T11:43:47;23.80;72.60
45535;DHT22;35892;48.798;9.698;2022-08-21T11:51:57;24.10;69.60
45535;DHT22;35892;48.798;9.698;2022-08-21T11:57:08;24.00;69.50
45535;DHT22;35892;48.798;9.698;2022-08-21T11:59:53;24.00;68.90
45535;DHT22;35892;48.798;9.698;2022-08-21T12:02:28;24.10;68.20
45535;DHT22;35892;48.798;9.698;2022-08-21T12:04:59;24.10;67.70
45535;DHT22;35892;48.798;9.698;2022-08-21T12:07:40;24.20;67.20
45535;DHT22;35892;48.798;9.698;2022-08-21T12:10:19;24.20;68.10
45535;DHT22;35892;48.798;9.698;2022-08-21T12:13:10;24.20;68.80
45535;DHT22;35892;48.798;9.698;2022-08-21T12:15:38;24.20;66.80
45535;DHT22;35892;48.798;9.698;2022-08-21T12:18:28;24.10;67.00
45535;DHT22;35892;48.798;9.698;2022-08-21T12:21:23;24.00;65.80
45535;DHT22;35892;48.798;9.698;2022-08-21T12:26:55;24.00;66.50
45535;DHT22;35892;48.798;9.698;2022-08-21T12:29:33;24.00;66.10
45535;DHT22;35892;48.798;9.698;2022-08-21T12:34:55;24.00;65.60
45535;DHT22;35892;48.798;9.698;2022-08-21T12:37:39;24.10;65.30
45535;DHT22;35892;48.798;9.698;2022-08-21T12:40:26;24.20;65.40
45535;DHT22;35892;48.798;9.698;2022-08-21T12:42:58;24.30;63.40
45535;DHT22;35892;48.798;9.698;2022-08-21T12:48:12;24.30;64.00
45535;DHT22;35892;48.798;9.698;2022-08-21T12:53:30;24.40;63.70
45535;DHT22;35892;48.798;9.698;2022-08-21T12:56:18;24.40;62.10
45535;DHT22;35892;48.798;9.698;2022-08-21T12:58:51;24.40;61.80
45535;DHT22;35892;48.798;9.698;2022-08-21T13:01:35;24.50;62.40
45535;DHT22;35892;48.798;9.698;2022-08-21T13:04:13;24.60;61.60
45535;DHT22;35892;48.798;9.698;2022-08-21T13:06:44;24.80;60.20
45535;DHT22;35892;48.798;9.698;2022-08-21T13:09:14;24.80;59.80
45535;DHT22;35892;48.798;9.698;2022-08-21T13:11:45;24.70;59.90
45535;DHT22;35892;48.798;9.698;2022-08-21T13:16:58;24.80;59.80
45535;DHT22;35892;48.798;9.698;2022-08-21T13:19:26;24.90;60.90
45535;DHT22;35892;48.798;9.698;2022-08-21T13:21:53;25.00;60.10
45535;DHT22;35892;48.798;9.698;2022-08-21T13:24:24;25.00;59.80
45535;DHT22;35892;48.798;9.698;2022-08-21T13:27:29;25.00;60.10
45535;DHT22;35892;48.798;9.698;2022-08-21T13:32:37;24.90;57.90
45535;DHT22;35892;48.798;9.698;2022-08-21T13:35:21;24.90;58.60
45535;DHT22;35892;48.798;9.698;2022-08-21T13:37:49;25.00;59.40
45535;DHT22;35892;48.798;9.698;2022-08-21T13:40:29;25.00;59.20
45535;DHT22;35892;48.798;9.698;2022-08-21T13:42:59;25.00;58.80
45535;DHT22;35892;48.798;9.698;2022-08-21T13:45:31;25.10;58.60
45535;DHT22;35892;48.798;9.698;2022-08-21T13:48:00;25.20;57.10
45535;DHT22;35892;48.798;9.698;2022-08-21T13:50:34;25.20;56.80
45535;DHT22;35892;48.798;9.698;2022-08-21T13:53:06;25.10;57.00
45535;DHT22;35892;48.798;9.698;2022-08-21T13:55:42;25.10;56.30
45535;DHT22;35892;48.798;9.698;2022-08-21T13:58:10;25.10;55.70
45535;DHT22;35892;48.798;9.698;2022-08-21T14:00:51;25.10;55.00
45535;DHT22;35892;48.798;9.698;2022-08-21T14:03:45;25.10;55.10
45535;DHT22;35892;48.798;9.698;2022-08-21T14:06:18;25.20;54.50
45535;DHT22;35892;48.798;9.698;2022-08-21T14:09:13;25.20;53.70
45535;DHT22;35892;48.798;9.698;2022-08-21T14:11:46;25.20;53.70
45535;DHT22;35892;48.798;9.698;2022-08-21T14:16:53;25.30;53.80
45535;DHT22;35892;48.798;9.698;2022-08-21T14:19:25;25.30;53.80
45535;DHT22;35892;48.798;9.698;2022-08-21T14:21:52;25.40;53.80
45535;DHT22;35892;48.798;9.698;2022-08-21T14:29:20;25.60;53.00
45535;DHT22;35892;48.798;9.698;2022-08-21T14:31:55;25.70;53.70
45535;DHT22;35892;48.798;9.698;2022-08-21T14:34:24;25.80;53.40
45535;DHT22;35892;48.798;9.698;2022-08-21T14:36:52;25.80;51.70
45535;DHT22;35892;48.798;9.698;2022-08-21T14:39:22;25.80;52.00
45535;DHT22;35892;48.798;9.698;2022-08-21T14:41:49;25.90;51.70
45535;DHT22;35892;48.798;9.698;2022-08-21T14:44:19;25.80;51.50
45535;DHT22;35892;48.798;9.698;2022-08-21T14:46:46;25.90;51.60
45535;DHT22;35892;48.798;9.698;2022-08-21T14:49:24;25.90;50.90
45535;DHT22;35892;48.798;9.698;2022-08-21T14:51:54;25.90;51.10
45535;DHT22;35892;48.798;9.698;2022-08-21T14:54:28;26.00;52.40
45535;DHT22;35892;48.798;9.698;2022-08-21T14:57:04;26.10;52.20
45535;DHT22;35892;48.798;9.698;2022-08-21T14:59:32;26.10;52.00
45535;DHT22;35892;48.798;9.698;2022-08-21T15:02:02;26.20;52.20
45535;DHT22;35892;48.798;9.698;2022-08-21T15:04:31;26.10;50.70
45535;DHT22;35892;48.798;9.698;2022-08-21T15:06:58;26.10;49.60
45535;DHT22;35892;48.798;9.698;2022-08-21T15:09:25;26.10;49.80
45535;DHT22;35892;48.798;9.698;2022-08-21T15:11:55;26.20;50.20
45535;DHT22;35892;48.798;9.698;2022-08-21T15:14:28;26.30;49.20
45535;DHT22;35892;48.798;9.698;2022-08-21T15:16:56;26.40;48.80
45535;DHT22;35892;48.798;9.698;2022-08-21T15:19:23;26.50;49.40
45535;DHT22;35892;48.798;9.698;2022-08-21T15:21:53;26.50;49.00
45535;DHT22;35892;48.798;9.698;2022-08-21T15:24:23;26.40;49.00
45535;DHT22;35892;48.798;9.698;2022-08-21T15:26:50;26.50;49.20
45535;DHT22;35892;48.798;9.698;2022-08-21T15:29:20;26.60;48.90
45535;DHT22;35892;48.798;9.698;2022-08-21T15:31:54;26.60;48.60
45535;DHT22;35892;48.798;9.698;2022-08-21T15:34:27;26.60;48.80
45535;DHT22;35892;48.798;9.698;2022-08-21T15:36:55;26.50;49.40
45535;DHT22;35892;48.798;9.698;2022-08-21T15:39:26;26.50;49.80
45535;DHT22;35892;48.798;9.698;2022-08-21T15:41:57;26.50;49.80
45535;DHT22;35892;48.798;9.698;2022-08-21T15:44:25;27.50;49.00
45535;DHT22;35892;48.798;9.698;2022-08-21T15:46:54;29.50;45.50
45535;DHT22;35892;48.798;9.698;2022-08-21T15:49:24;32.00;41.10
45535;DHT22;35892;48.798;9.698;2022-08-21T15:51:51;33.90;37.70
45535;DHT22;35892;48.798;9.698;2022-08-21T15:54:20;35.00;34.80
45535;DHT22;35892;48.798;9.698;2022-08-21T15:56:50;35.00;34.70
45535;DHT22;35892;48.798;9.698;2022-08-21T15:59:21;34.90;34.80
45535;DHT22;35892;48.798;9.698;2022-08-21T16:01:54;35.20;34.30
45535;DHT22;35892;48.798;9.698;2022-08-21T16:04:28;36.30;33.60
45535;DHT22;35892;48.798;9.698;2022-08-21T16:06:57;36.50;31.50
45535;DHT22;35892;48.798;9.698;2022-08-21T16:09:35;36.60;31.30
45535;DHT22;35892;48.798;9.698;2022-08-21T16:12:04;36.50;31.90
45535;DHT22;35892;48.798;9.698;2022-08-21T16:14:32;36.70;32.30
45535;DHT22;35892;48.798;9.698;2022-08-21T16:17:00;37.50;31.40
45535;DHT22;35892;48.798;9.698;2022-08-21T16:19:28;38.20;30.50
45535;DHT22;35892;48.798;9.698;2022-08-21T16:21:55;38.50;30.00
45535;DHT22;35892;48.798;9.698;2022-08-21T16:24:22;38.40;30.20
45535;DHT22;35892;48.798;9.698;2022-08-21T16:26:49;38.10;30.40
45535;DHT22;35892;48.798;9.698;2022-08-21T16:29:29;37.90;30.40
45535;DHT22;35892;48.798;9.698;2022-08-21T16:31:59;37.50;30.40
45535;DHT22;35892;48.798;9.698;2022-08-21T16:34:30;37.00;30.10
45535;DHT22;35892;48.798;9.698;2022-08-21T16:36:57;36.00;31.10
45535;DHT22;35892;48.798;9.698;2022-08-21T16:39:24;35.70;32.20
45535;DHT22;35892;48.798;9.698;2022-08-21T16:41:53;36.00;31.90
45535;DHT22;35892;48.798;9.698;2022-08-21T16:44:22;36.20;31.20
45535;DHT22;35892;48.798;9.698;2022-08-21T16:46:55;36.70;31.30
45535;DHT22;35892;48.798;9.698;2022-08-21T16:49:27;37.40;31.00
45535;DHT22;35892;48.798;9.698;2022-08-21T16:51:56;37.60;30.50
45535;DHT22;35892;48.798;9.698;2022-08-21T16:54:23;37.90;30.90
45535;DHT22;35892;48.798;9.698;2022-08-21T16:56:50;38.00;30.40
45535;DHT22;35892;48.798;9.698;2022-08-21T16:59:20;37.80;30.60
45535;DHT22;35892;48.798;9.698;2022-08-21T17:01:47;37.90;31.90
45535;DHT22;35892;48.798;9.698;2022-08-21T17:04:13;37.80;32.60
45535;DHT22;35892;48.798;9.698;2022-08-21T17:06:43;37.70;32.90
45535;DHT22;35892;48.798;9.698;2022-08-21T17:09:10;37.90;32.60
45535;DHT22;35892;48.798;9.698;2022-08-21T17:11:45;38.10;32.40
45535;DHT22;35892;48.798;9.698;2022-08-21T17:14:18;37.90;32.50
45535;DHT22;35892;48.798;9.698;2022-08-21T17:16:50;37.60;32.80
45535;DHT22;35892;48.798;9.698;2022-08-21T17:19:17;37.10;33.40
45535;DHT22;35892;48.798;9.698;2022-08-21T17:21:49;36.40;35.40
45535;DHT22;35892;48.798;9.698;2022-08-21T17:24:16;35.40;37.40
45535;DHT22;35892;48.798;9.698;2022-08-21T17:26:44;34.70;38.10
45535;DHT22;35892;48.798;9.698;2022-08-21T17:29:12;34.30;38.50
45535;DHT22;35892;48.798;9.698;2022-08-21T17:31:43;34.00;39.20
45535;DHT22;35892;48.798;9.698;2022-08-21T17:34:12;34.00;39.10